Time;durP1;ratioP1;P1;durP2;ratioP2;P2;SDS_P1;SDS_P2;PMS_P1;PMS_P2;Temp;Humidity;BMP_temperature;BMP_pressure;BME280_temperature;BME280_humidity;BME280_pressure;Samples;Min_cycle;Max_cycle;Signal;HPM_P1;HPM_P2
2021/11/23 07:19:35;;;;;;;2.25;1.13;;;;;;;;;;5129121;27;20157;-72
2021/11/23 07:22:01;;;;;;;3.40;1.75;;;;;;;;;;5051108;28;20072;-73
2021/11/23 07:24:27;;;;;;;9.02;1.65;;;;;;;;;;5089958;28;20111;-75
2021/11/23 07:26:53;;;;;;;5.93;1.92;;;;;;;;;;5091533;28;20044;-71
2021/11/23 07:29:19;;;;;;;4.18;1.77;;;;;;;;;;5090914;28;20028;-72
2021/11/23 07:31:45;;;;;;;5.47;2.00;;;;;;;;;;5090985;28;20536;-73
2021/11/23 07:34:10;;;;;;;4.47;1.65;;;;;;;;;;5090844;28;20107;-73
2021/11/23 07:36:38;;;;;;;9.00;2.03;;;;;;;;;;5089403;28;20123;-72
2021/11/23 07:39:04;;;;;;;6.97;1.88;;;;;;;;;;5089890;28;20494;-71
2021/11/23 07:41:29;;;;;;;5.65;1.60;;;;;;;;;;5071854;28;20387;-72
2021/11/23 07:43:56;;;;;;;5.57;2.17;;;;;;;;;;5090062;28;20028;-71
2021/11/23 07:46:22;;;;;;;4.35;1.80;;;;;;;;;;5090195;28;20055;-69
2021/11/23 07:48:47;;;;;;;6.55;2.00;;;;;;;;;;5089670;28;20024;-72
2021/11/23 07:51:13;;;;;;;6.35;2.08;;;;;;;;;;5089386;28;20457;-76
2021/11/23 07:53:39;;;;;;;6.68;1.80;;;;;;;;;;5084080;28;20024;-72
2021/11/23 07:56:05;;;;;;;5.55;2.05;;;;;;;;;;5077887;28;20020;-71
2021/11/23 07:58:31;;;;;;;14.75;1.70;;;;;;;;;;5089501;28;20040;-72
2021/11/23 08:00:56;;;;;;;4.70;2.00;;;;;;;;;;5089278;28;20100;-72
2021/11/23 08:03:22;;;;;;;4.75;1.65;;;;;;;;;;5089459;28;20024;-71
2021/11/23 08:05:48;;;;;;;4.18;1.50;;;;;;;;;;5088294;28;20047;-74
2021/11/23 08:08:13;;;;;;;3.40;1.65;;;;;;;;;;5089351;28;20032;-75
2021/11/23 08:10:40;;;;;;;3.83;1.70;;;;;;;;;;5060383;28;20033;-74
2021/11/23 08:13:06;;;;;;;3.67;1.80;;;;;;;;;;5093130;28;20016;-73
2021/11/23 08:15:35;;;;;;;2.65;1.50;;;;;;;;;;5108421;28;20535;-71
2021/11/23 08:18:01;;;;;;;5.10;2.00;;;;;;;;;;5098786;28;20185;-71
2021/11/23 08:20:26;;;;;;;5.63;1.70;;;;;;;;;;5087897;28;20036;-71
2021/11/23 08:22:52;;;;;;;5.38;1.80;;;;;;;;;;5071134;28;20028;-73
2021/11/23 08:25:18;;;;;;;6.72;1.60;;;;;;;;;;5085856;28;20155;-71
2021/11/23 08:27:44;;;;;;;3.20;1.80;;;;;;;;;;5091896;28;20491;-72
2021/11/23 08:30:09;;;;;;;4.80;1.83;;;;;;;;;;5078249;28;20032;-71
2021/11/23 08:32:36;;;;;;;3.03;1.60;;;;;;;;;;5075368;28;20028;-72
2021/11/23 08:35:02;;;;;;;4.65;1.80;;;;;;;;;;5075347;28;20028;-71
2021/11/23 08:37:27;;;;;;;4.85;1.80;;;;;;;;;;5075313;28;20036;-68
2021/11/23 08:39:53;;;;;;;12.75;1.98;;;;;;;;;;5075290;28;20039;-70
2021/11/23 08:42:20;;;;;;;8.30;1.67;;;;;;;;;;5042969;28;20513;-68
2021/11/23 08:44:46;;;;;;;4.85;1.98;;;;;;;;;;5073707;28;20055;-69
2021/11/23 08:47:12;;;;;;;5.85;1.83;;;;;;;;;;5074543;28;20479;-69
2021/11/23 08:49:38;;;;;;;4.75;1.75;;;;;;;;;;5074435;28;20435;-69
2021/11/23 08:52:04;;;;;;;5.82;1.65;;;;;;;;;;5073748;28;20131;-69
2021/11/23 08:54:29;;;;;;;2.25;1.30;;;;;;;;;;5074876;28;20032;-69
2021/11/23 08:57:07;;;;;;;4.68;1.67;;;;;;;;;;5074802;28;20037;-68
2021/11/23 08:59:34;;;;;;;9.77;1.75;;;;;;;;;;5074693;28;20441;-69
2021/11/23 09:02:00;;;;;;;4.63;1.90;;;;;;;;;;5073431;28;20032;-68
2021/11/23 09:04:26;;;;;;;7.10;1.92;;;;;;;;;;5074698;28;20111;-69
2021/11/23 09:06:52;;;;;;;2.78;1.60;;;;;;;;;;5073144;28;20421;-69
2021/11/23 09:09:23;;;;;;;5.20;1.73;;;;;;;;;;5072898;28;20608;-68
2021/11/23 09:11:48;;;;;;;2.92;1.60;;;;;;;;;;5074489;28;20017;-69
2021/11/23 09:14:14;;;;;;;4.85;1.45;;;;;;;;;;5074596;28;20036;-69
2021/11/23 09:16:39;;;;;;;9.57;1.92;;;;;;;;;;5074411;28;20025;-68
2021/11/23 09:19:05;;;;;;;6.03;1.83;;;;;;;;;;5074109;28;20052;-69
2021/11/23 09:21:31;;;;;;;3.40;1.58;;;;;;;;;;5074423;28;20111;-69
2021/11/23 09:23:57;;;;;;;3.08;1.60;;;;;;;;;;5074655;28;20040;-69
2021/11/23 09:26:23;;;;;;;4.43;1.60;;;;;;;;;;5075231;28;20411;-68
2021/11/23 09:28:49;;;;;;;2.95;1.48;;;;;;;;;;5074145;28;20036;-70
2021/11/23 09:31:15;;;;;;;3.17;1.50;;;;;;;;;;5072959;28;20036;-69
2021/11/23 09:33:40;;;;;;;3.05;1.40;;;;;;;;;;5074226;28;20062;-68
2021/11/23 09:36:07;;;;;;;3.85;1.60;;;;;;;;;;5072865;28;20062;-69
2021/11/23 09:38:32;;;;;;;2.72;1.38;;;;;;;;;;5073822;28;20115;-71
2021/11/23 09:40:59;;;;;;;6.05;1.75;;;;;;;;;;5074633;28;20528;-68
2021/11/23 09:43:24;;;;;;;2.95;1.50;;;;;;;;;;5082860;28;20103;-70
2021/11/23 09:45:51;;;;;;;5.30;1.70;;;;;;;;;;5083334;28;20055;-69
2021/11/23 09:48:20;;;;;;;3.40;1.55;;;;;;;;;;5093993;28;20039;-69
2021/11/23 09:50:47;;;;;;;2.75;1.63;;;;;;;;;;5078809;28;20202;-69
2021/11/23 09:53:13;;;;;;;2.42;1.35;;;;;;;;;;5073913;28;20452;-68
2021/11/23 09:55:39;;;;;;;3.45;1.55;;;;;;;;;;5073742;28;20020;-69
2021/11/23 09:58:05;;;;;;;2.92;1.55;;;;;;;;;;5092578;28;20077;-69
2021/11/23 10:00:32;;;;;;;5.60;1.50;;;;;;;;;;5080327;28;20020;-68
2021/11/23 10:03:06;;;;;;;3.20;1.75;;;;;;;;;;5072405;28;20035;-68
2021/11/23 10:05:33;;;;;;;3.40;1.30;;;;;;;;;;5073420;28;20426;-67
2021/11/23 10:08:04;;;;;;;4.20;1.30;;;;;;;;;;5073468;28;20095;-67
2021/11/23 10:10:30;;;;;;;3.00;1.27;;;;;;;;;;5073346;28;20040;-68
2021/11/23 10:12:59;;;;;;;2.65;1.27;;;;;;;;;;5071827;28;20032;-67
2021/11/23 10:15:25;;;;;;;2.53;1.30;;;;;;;;;;5079024;28;20027;-72
2021/11/23 10:17:55;;;;;;;2.47;1.35;;;;;;;;;;5092785;28;20048;-72
2021/11/23 10:20:24;;;;;;;2.72;1.40;;;;;;;;;;5092656;28;20024;-70
2021/11/23 10:22:50;;;;;;;3.15;1.35;;;;;;;;;;5075991;28;20055;-71
2021/11/23 10:25:15;;;;;;;4.03;1.42;;;;;;;;;;5093954;28;20463;-72
2021/11/23 10:27:42;;;;;;;3.28;1.30;;;;;;;;;;5080543;28;20122;-71
2021/11/23 10:30:08;;;;;;;3.08;1.48;;;;;;;;;;5072506;28;20028;-69
2021/11/23 10:32:40;;;;;;;3.33;1.23;;;;;;;;;;5073689;28;20027;-71
2021/11/23 10:35:10;;;;;;;4.00;1.42;;;;;;;;;;5073793;28;20036;-70
2021/11/23 10:37:36;;;;;;;4.72;1.45;;;;;;;;;;5073697;28;20037;-72
2021/11/23 10:40:18;;;;;;;3.08;1.38;;;;;;;;;;5072423;28;20043;-71
2021/11/23 10:42:48;;;;;;;6.07;2.70;;;;;;;;;;5073156;28;20406;-70
2021/11/23 10:45:14;;;;;;;3.13;1.50;;;;;;;;;;5072417;28;20032;-72
2021/11/23 10:47:41;;;;;;;2.47;1.52;;;;;;;;;;5055822;28;20044;-71
2021/11/23 10:50:08;;;;;;;3.22;1.40;;;;;;;;;;5073358;28;20032;-69
2021/11/23 10:52:36;;;;;;;2.67;1.38;;;;;;;;;;5073153;28;20093;-72
2021/11/23 10:55:22;;;;;;;5.10;1.45;;;;;;;;;;5073581;28;20078;-72
2021/11/23 10:57:48;;;;;;;2.20;1.35;;;;;;;;;;5073557;28;20040;-72
2021/11/23 11:00:14;;;;;;;3.35;1.55;;;;;;;;;;5073443;28;20035;-72
2021/11/23 11:02:41;;;;;;;2.53;1.40;;;;;;;;;;5073616;28;20029;-72
2021/11/23 11:05:08;;;;;;;4.45;1.40;;;;;;;;;;5072269;28;20089;-72
2021/11/23 11:07:35;;;;;;;3.63;1.48;;;;;;;;;;5073512;28;20040;-72
2021/11/23 11:10:01;;;;;;;3.28;1.45;;;;;;;;;;5072155;28;20544;-74
2021/11/23 11:12:27;;;;;;;3.92;1.70;;;;;;;;;;5072478;28;20410;-72
2021/11/23 11:14:54;;;;;;;4.80;1.90;;;;;;;;;;5073571;28;20025;-69
2021/11/23 11:17:23;;;;;;;3.40;1.70;;;;;;;;;;5073030;28;20040;-71
2021/11/23 11:19:50;;;;;;;4.18;1.48;;;;;;;;;;5073253;28;20504;-70
2021/11/23 11:22:21;;;;;;;2.42;1.30;;;;;;;;;;5074504;28;20032;-69
2021/11/23 11:25:18;;;;;;;3.38;1.80;;;;;;;;;;5081179;28;20382;-68
2021/11/23 11:27:46;;;;;;;4.65;2.30;;;;;;;;;;5091225;28;20079;-69
2021/11/23 11:30:21;;;;;;;5.95;2.30;;;;;;;;;;5089183;28;20029;-71
2021/11/23 11:32:47;;;;;;;4.95;3.13;;;;;;;;;;5055624;28;20102;-68
2021/11/23 11:35:27;;;;;;;12.52;4.10;;;;;;;;;;5073104;28;20055;-69
2021/11/23 11:37:54;;;;;;;5.53;3.30;;;;;;;;;;5073099;28;20029;-68
2021/11/23 11:40:25;;;;;;;8.23;4.18;;;;;;;;;;5090298;28;20039;-67
2021/11/23 11:42:53;;;;;;;7.57;4.47;;;;;;;;;;5086075;28;20029;-69
2021/11/23 11:45:22;;;;;;;5.70;3.63;;;;;;;;;;5070567;28;20047;-77
2021/11/23 11:47:48;;;;;;;12.02;3.72;;;;;;;;;;5070715;28;20483;-80
2021/11/23 11:50:19;;;;;;;11.32;4.07;;;;;;;;;;5070752;28;20037;-75
2021/11/23 11:52:50;;;;;;;8.35;4.22;;;;;;;;;;5071621;28;20349;-74
2021/11/23 11:55:17;;;;;;;8.82;4.03;;;;;;;;;;5071800;28;20028;-69
2021/11/23 11:57:47;;;;;;;9.85;3.63;;;;;;;;;;5069659;28;20039;-71
2021/11/23 12:03:00;;;;;;;5.63;3.13;;;;;;;;;;5071913;28;20028;-78
2021/11/23 12:05:47;;;;;;;10.75;3.72;;;;;;;;;;5074059;28;20028;-74
2021/11/23 12:08:40;;;;;;;6.03;3.15;;;;;;;;;;5075531;28;20044;-76
2021/11/23 12:11:07;;;;;;;7.65;3.13;;;;;;;;;;5056731;28;20059;-74
2021/11/23 12:13:56;;;;;;;6.75;3.35;;;;;;;;;;5075363;28;20021;-74
2021/11/23 12:16:25;;;;;;;5.32;2.80;;;;;;;;;;5075367;28;20054;-72
2021/11/23 12:19:00;;;;;;;7.65;3.05;;;;;;;;;;5090607;28;20053;-71
2021/11/23 12:21:33;;;;;;;5.75;3.08;;;;;;;;;;5075015;28;20028;-80
2021/11/23 12:24:00;;;;;;;5.72;3.00;;;;;;;;;;5073781;28;20037;-75
2021/11/23 12:26:30;;;;;;;6.53;2.75;;;;;;;;;;5074499;28;20025;-75
2021/11/23 12:29:02;;;;;;;6.07;3.03;;;;;;;;;;5073026;28;20016;-73
2021/11/23 12:31:30;;;;;;;6.03;3.20;;;;;;;;;;5075817;28;20055;-73
2021/11/23 12:34:00;;;;;;;6.47;2.72;;;;;;;;;;5076111;28;20020;-76
2021/11/23 12:36:28;;;;;;;7.35;2.75;;;;;;;;;;5058544;28;20035;-74
2021/11/23 12:38:54;;;;;;;6.05;2.45;;;;;;;;;;5075821;28;20032;-72
2021/11/23 12:41:22;;;;;;;5.30;2.30;;;;;;;;;;5074868;28;20025;-69
2021/11/23 12:43:48;;;;;;;8.50;3.13;;;;;;;;;;5076087;28;20475;-71
2021/11/23 12:46:18;;;;;;;5.53;2.53;;;;;;;;;;5075919;28;20082;-67
2021/11/23 12:48:45;;;;;;;6.57;2.65;;;;;;;;;;5057916;28;20123;-74
2021/11/23 12:51:16;;;;;;;6.22;2.60;;;;;;;;;;5058114;28;20382;-73
2021/11/23 12:53:50;;;;;;;6.25;2.60;;;;;;;;;;5077217;28;20482;-69
2021/11/23 12:56:16;;;;;;;7.22;2.33;;;;;;;;;;5081764;28;20077;-72
2021/11/23 12:58:42;;;;;;;7.95;2.25;;;;;;;;;;5089749;28;20044;-70
2021/11/23 13:01:27;;;;;;;7.15;2.40;;;;;;;;;;5094745;28;20059;-71
2021/11/23 13:03:54;;;;;;;7.63;2.33;;;;;;;;;;5075502;28;20073;-72
2021/11/23 13:06:19;;;;;;;7.22;2.13;;;;;;;;;;5075552;28;20028;-72
2021/11/23 13:09:05;;;;;;;4.68;1.80;;;;;;;;;;5075491;28;20031;-73
2021/11/23 13:11:31;;;;;;;8.05;2.10;;;;;;;;;;5090803;28;20039;-74
2021/11/23 13:14:12;;;;;;;3.47;1.83;;;;;;;;;;5095936;28;20962;-74
2021/11/23 13:16:53;;;;;;;6.03;1.95;;;;;;;;;;5095518;28;20075;-72
2021/11/23 13:19:19;;;;;;;9.15;2.50;;;;;;;;;;5094077;28;20052;-74
2021/11/23 13:21:44;;;;;;;5.10;2.10;;;;;;;;;;5094447;28;20056;-73
2021/11/23 13:24:11;;;;;;;4.13;1.83;;;;;;;;;;5095294;28;20028;-73
2021/11/23 13:26:37;;;;;;;5.10;2.65;;;;;;;;;;5092183;28;20078;-72
2021/11/23 13:29:06;;;;;;;4.43;1.73;;;;;;;;;;5063623;28;20082;-72
2021/11/23 13:31:39;;;;;;;6.40;2.22;;;;;;;;;;5037170;28;20028;-73
2021/11/23 13:34:14;;;;;;;5.88;1.98;;;;;;;;;;5036722;28;20101;-73
2021/11/23 13:36:42;;;;;;;5.07;2.22;;;;;;;;;;5054578;28;20032;-72
2021/11/23 13:39:26;;;;;;;5.32;1.63;;;;;;;;;;5054642;28;20040;-72
2021/11/23 13:41:53;;;;;;;4.38;1.90;;;;;;;;;;5037211;28;20052;-73
2021/11/23 14:18:24;;;;;;;3.25;1.40;;;;;;;;;;5780138;23;20062;-74
2021/11/23 14:20:52;;;;;;;4.28;2.00;;;;;;;;;;4970445;28;20058;-73
2021/11/23 14:23:27;;;;;;;4.18;1.77;;;;;;;;;;4970937;28;20054;-74
2021/11/23 14:26:07;;;;;;;7.82;1.80;;;;;;;;;;4970745;28;20515;-73
2021/11/23 14:28:34;;;;;;;5.20;1.80;;;;;;;;;;4967873;28;20050;-71
2021/11/23 14:31:00;;;;;;;2.90;1.50;;;;;;;;;;4955047;28;20038;-73
2021/11/23 14:33:26;;;;;;;3.55;1.48;;;;;;;;;;4970312;28;20031;-72
2021/11/23 14:35:52;;;;;;;5.38;1.80;;;;;;;;;;4970621;28;20031;-72
2021/11/23 14:38:19;;;;;;;4.45;1.83;;;;;;;;;;4970674;28;20397;-73
2021/11/23 14:40:47;;;;;;;3.30;1.30;;;;;;;;;;4955777;28;20085;-74
2021/11/23 14:43:13;;;;;;;4.53;1.33;;;;;;;;;;4938722;29;20027;-73
2021/11/23 14:45:39;;;;;;;3.80;1.70;;;;;;;;;;4955655;28;20396;-74
2021/11/23 14:48:04;;;;;;;3.22;1.50;;;;;;;;;;4970389;28;20034;-74
2021/11/23 14:50:30;;;;;;;4.95;1.70;;;;;;;;;;4970532;28;20118;-74
2021/11/23 14:52:57;;;;;;;2.85;1.40;;;;;;;;;;4955691;29;20024;-73
2021/11/23 14:55:22;;;;;;;5.38;1.70;;;;;;;;;;4954529;29;20042;-74
2021/11/23 14:57:48;;;;;;;3.88;1.60;;;;;;;;;;4955328;28;20035;-73
2021/11/23 15:00:17;;;;;;;5.72;1.67;;;;;;;;;;4954416;29;20500;-73
2021/11/23 15:02:42;;;;;;;6.15;2.25;;;;;;;;;;4954562;28;20027;-73
2021/11/23 15:05:08;;;;;;;3.25;1.70;;;;;;;;;;4957851;28;20035;-74
2021/11/23 15:09:42;;;;;;;3.40;1.73;;;;;;;;;;5114786;27;20165;-81
2021/11/23 15:12:09;;;;;;;5.82;1.73;;;;;;;;;;5093277;28;20034;-77
2021/11/23 15:14:35;;;;;;;3.20;1.65;;;;;;;;;;5093622;28;20038;-77
2021/11/23 15:17:00;;;;;;;6.57;1.77;;;;;;;;;;5075758;27;20041;-78
2021/11/23 15:21:53;;;;;;;3.85;1.50;;;;;;;;;;5053268;27;20448;-77
2021/11/23 15:24:18;;;;;;;5.22;1.85;;;;;;;;;;5050767;28;20041;-78
2021/11/23 15:26:44;;;;;;;4.95;2.10;;;;;;;;;;5050237;28;20116;-80
2021/11/23 15:29:11;;;;;;;4.82;2.10;;;;;;;;;;5065256;28;20032;-77
2021/11/23 15:31:37;;;;;;;3.63;1.67;;;;;;;;;;5049002;28;20103;-77
2021/11/23 15:34:03;;;;;;;5.65;2.00;;;;;;;;;;5015822;28;20029;-80
2021/11/23 15:36:29;;;;;;;14.00;1.90;;;;;;;;;;5028775;28;20029;-79
2021/11/23 15:38:55;;;;;;;8.10;1.55;;;;;;;;;;5028865;28;20433;-80
2021/11/23 15:41:20;;;;;;;5.22;1.40;;;;;;;;;;5012451;28;20037;-78
2021/11/23 15:43:46;;;;;;;3.58;1.75;;;;;;;;;;5028623;28;20041;-78
2021/11/23 15:46:11;;;;;;;3.25;1.55;;;;;;;;;;5037812;28;20463;-77
2021/11/23 15:48:37;;;;;;;3.72;1.70;;;;;;;;;;5049784;28;20542;-75
2021/11/23 15:51:05;;;;;;;8.38;2.13;;;;;;;;;;5048671;28;20021;-75
2021/11/23 15:53:32;;;;;;;5.25;2.08;;;;;;;;;;5047591;28;20068;-77
2021/11/23 15:55:58;;;;;;;5.28;1.65;;;;;;;;;;5064621;28;20029;-74
2021/11/23 15:58:24;;;;;;;7.60;1.80;;;;;;;;;;5064216;28;20098;-82
2021/11/23 16:00:50;;;;;;;4.80;2.40;;;;;;;;;;5048566;28;20052;-80
2021/11/23 16:03:16;;;;;;;5.38;1.80;;;;;;;;;;5032139;28;20025;-79
2021/11/23 16:05:42;;;;;;;6.05;2.13;;;;;;;;;;5049162;28;20056;-76
2021/11/23 16:08:08;;;;;;;3.80;1.70;;;;;;;;;;5027829;28;20029;-81
2021/11/23 16:10:33;;;;;;;2.92;1.35;;;;;;;;;;5044789;28;20044;-77
2021/11/23 16:12:59;;;;;;;6.03;1.85;;;;;;;;;;5044738;28;20767;-80
2021/11/23 16:15:24;;;;;;;4.18;1.50;;;;;;;;;;5028272;28;20065;-80
2021/11/23 16:17:50;;;;;;;4.78;1.60;;;;;;;;;;5029352;28;20030;-79
2021/11/23 16:20:15;;;;;;;4.70;1.80;;;;;;;;;;5044519;28;20049;-80
2021/11/23 16:22:42;;;;;;;8.35;1.70;;;;;;;;;;5029252;28;20474;-78
2021/11/23 16:25:07;;;;;;;5.00;1.92;;;;;;;;;;5026334;28;20040;-79
2021/11/23 16:27:38;;;;;;;5.07;1.60;;;;;;;;;;5009211;28;20121;-80
2021/11/23 16:30:08;;;;;;;9.45;1.83;;;;;;;;;;5034554;28;20029;-80
2021/11/23 16:32:34;;;;;;;6.65;2.20;;;;;;;;;;5015987;28;20038;-80
2021/11/23 16:34:59;;;;;;;6.07;1.67;;;;;;;;;;4981527;28;20026;-79
2021/11/23 16:37:26;;;;;;;3.78;1.42;;;;;;;;;;5015537;28;20029;-78
2021/11/23 16:39:51;;;;;;;4.63;2.00;;;;;;;;;;5030675;28;20042;-78
2021/11/23 16:42:18;;;;;;;3.38;1.30;;;;;;;;;;5019952;28;20037;-79
2021/11/23 16:44:44;;;;;;;7.80;1.85;;;;;;;;;;5030718;28;20050;-79
2021/11/23 16:47:14;;;;;;;10.07;2.15;;;;;;;;;;5016077;28;20038;-79
2021/11/23 16:49:41;;;;;;;6.00;1.92;;;;;;;;;;5031722;28;20036;-79
2021/11/23 16:52:09;;;;;;;7.63;1.70;;;;;;;;;;5014945;28;20086;-77
2021/11/23 16:54:35;;;;;;;9.63;2.00;;;;;;;;;;5018295;28;20030;-83
2021/11/23 16:57:01;;;;;;;3.80;1.42;;;;;;;;;;4999343;28;20114;-78
2021/11/23 16:59:26;;;;;;;11.52;2.10;;;;;;;;;;5027538;28;20058;-80
2021/11/23 17:01:52;;;;;;;9.77;2.40;;;;;;;;;;5014801;28;20041;-77
2021/11/23 17:04:19;;;;;;;5.43;2.03;;;;;;;;;;5014941;28;20475;-77
2021/11/23 17:06:49;;;;;;;6.57;1.77;;;;;;;;;;4998720;28;20109;-76
2021/11/23 17:09:15;;;;;;;6.60;2.25;;;;;;;;;;5034761;28;20030;-76
2021/11/23 17:11:40;;;;;;;11.02;2.20;;;;;;;;;;5013948;28;20490;-77
2021/11/23 17:14:06;;;;;;;14.23;2.40;;;;;;;;;;5015016;28;20105;-77
2021/11/23 17:16:31;;;;;;;6.72;2.22;;;;;;;;;;4998991;28;20121;-78
2021/11/23 17:18:57;;;;;;;16.77;2.88;;;;;;;;;;4994675;28;20049;-81
2021/11/23 17:21:22;;;;;;;9.73;2.10;;;;;;;;;;4992826;28;20086;-78
2021/11/23 17:23:48;;;;;;;8.75;2.25;;;;;;;;;;4999346;28;20022;-79
2021/11/23 17:26:13;;;;;;;6.43;2.08;;;;;;;;;;4991623;28;20046;-76
2021/11/23 17:28:39;;;;;;;9.30;2.50;;;;;;;;;;4993980;28;20085;-77
2021/11/23 17:31:05;;;;;;;9.20;2.33;;;;;;;;;;4977595;28;20038;-77
2021/11/23 17:33:31;;;;;;;10.73;2.38;;;;;;;;;;4975670;28;20380;-77
2021/11/23 17:35:56;;;;;;;11.35;2.17;;;;;;;;;;4984313;28;20038;-78
2021/11/23 17:38:31;;;;;;;7.20;2.30;;;;;;;;;;4993888;28;20484;-76
2021/11/23 17:40:57;;;;;;;10.50;2.95;;;;;;;;;;4982352;28;20499;-74
2021/11/23 17:43:23;;;;;;;9.27;3.25;;;;;;;;;;5019925;28;20062;-71
2021/11/23 17:45:49;;;;;;;8.68;3.13;;;;;;;;;;4994153;28;20034;-75
2021/11/23 17:48:15;;;;;;;9.43;3.28;;;;;;;;;;5000743;28;20019;-73
2021/11/23 17:50:41;;;;;;;5.28;2.78;;;;;;;;;;4958015;28;20031;-76
2021/11/23 17:53:07;;;;;;;9.38;2.92;;;;;;;;;;4973924;28;20031;-74
2021/11/23 17:55:33;;;;;;;8.23;2.88;;;;;;;;;;4973246;28;20400;-73
2021/11/23 17:57:59;;;;;;;7.45;2.40;;;;;;;;;;4975073;28;20037;-81
2021/11/23 18:00:27;;;;;;;10.75;2.72;;;;;;;;;;4975154;28;20073;-78
2021/11/23 18:02:54;;;;;;;14.07;2.70;;;;;;;;;;4992331;28;20088;-74
2021/11/23 18:05:19;;;;;;;6.03;2.47;;;;;;;;;;4994148;28;20031;-74
2021/11/23 18:07:47;;;;;;;7.47;2.50;;;;;;;;;;5001264;28;20059;-78
2021/11/23 18:10:13;;;;;;;4.40;2.45;;;;;;;;;;5012392;28;20145;-76
2021/11/23 18:12:39;;;;;;;8.27;1.90;;;;;;;;;;5012628;28;20503;-75
2021/11/23 18:15:05;;;;;;;7.57;2.28;;;;;;;;;;5013281;28;20033;-74
2021/11/23 18:17:31;;;;;;;12.05;2.78;;;;;;;;;;5013321;28;20029;-74
2021/11/23 18:19:56;;;;;;;5.38;2.08;;;;;;;;;;5013021;28;20061;-75
2021/11/23 18:22:22;;;;;;;5.75;2.30;;;;;;;;;;5012417;28;20132;-75
2021/11/23 18:24:48;;;;;;;6.47;2.60;;;;;;;;;;5013343;28;20332;-81
2021/11/23 18:27:14;;;;;;;7.80;2.47;;;;;;;;;;4995881;28;20037;-77
2021/11/23 18:29:43;;;;;;;8.50;2.30;;;;;;;;;;5013047;28;20033;-72
2021/11/23 18:32:08;;;;;;;7.25;2.20;;;;;;;;;;5012056;28;20045;-81
2021/11/23 18:34:35;;;;;;;7.10;2.33;;;;;;;;;;5028300;28;20034;-77
2021/11/23 18:37:01;;;;;;;6.45;2.88;;;;;;;;;;5028523;28;20092;-76
2021/11/23 18:39:28;;;;;;;7.20;2.15;;;;;;;;;;4989162;28;20073;-78
2021/11/23 18:41:57;;;;;;;7.63;2.25;;;;;;;;;;4991691;28;20084;-77
2021/11/23 18:44:22;;;;;;;9.80;2.58;;;;;;;;;;4992300;28;20042;-77
2021/11/23 18:46:48;;;;;;;7.55;2.55;;;;;;;;;;4986880;28;20061;-77
2021/11/23 18:49:14;;;;;;;6.10;2.63;;;;;;;;;;4972408;28;20472;-77
2021/11/23 18:51:41;;;;;;;6.70;2.70;;;;;;;;;;4972845;28;20038;-78
2021/11/23 18:54:06;;;;;;;6.30;2.95;;;;;;;;;;4973483;28;20101;-77
2021/11/23 18:56:33;;;;;;;6.85;2.40;;;;;;;;;;4988510;28;20030;-75
2021/11/23 18:58:59;;;;;;;6.78;2.72;;;;;;;;;;4991994;28;20034;-76
2021/11/23 19:01:24;;;;;;;10.38;3.15;;;;;;;;;;4993171;28;20069;-76
2021/11/23 19:03:51;;;;;;;7.80;3.75;;;;;;;;;;4978399;28;20693;-74
2021/11/23 19:06:17;;;;;;;11.43;4.70;;;;;;;;;;4991567;28;20375;-75
2021/11/23 19:08:43;;;;;;;13.27;5.55;;;;;;;;;;4993192;28;20031;-73
2021/11/23 19:11:09;;;;;;;14.32;5.47;;;;;;;;;;4992915;28;20056;-76
2021/11/23 19:13:36;;;;;;;10.57;5.05;;;;;;;;;;4978316;28;20465;-74
2021/11/23 19:16:08;;;;;;;9.82;3.88;;;;;;;;;;4956585;28;20027;-76
2021/11/23 19:18:35;;;;;;;10.02;3.97;;;;;;;;;;4956119;28;20031;-76
2021/11/23 19:21:01;;;;;;;9.73;4.15;;;;;;;;;;4971338;28;20047;-78
2021/11/23 19:23:27;;;;;;;7.45;3.75;;;;;;;;;;4988661;28;20121;-79
2021/11/23 19:25:53;;;;;;;11.35;4.22;;;;;;;;;;4972309;28;20069;-78
2021/11/23 19:28:20;;;;;;;10.10;4.10;;;;;;;;;;4972210;28;20033;-77
2021/11/23 19:30:45;;;;;;;7.15;3.60;;;;;;;;;;4973582;28;20059;-79
2021/11/23 19:33:11;;;;;;;8.30;3.78;;;;;;;;;;4971465;28;20117;-78
2021/11/23 19:35:39;;;;;;;11.43;3.67;;;;;;;;;;4971781;28;20031;-77
2021/11/23 19:38:05;;;;;;;6.38;3.22;;;;;;;;;;4971358;28;20053;-78
2021/11/23 19:40:32;;;;;;;18.73;5.03;;;;;;;;;;4972982;28;20042;-78
2021/11/23 19:42:59;;;;;;;11.35;3.47;;;;;;;;;;4988026;28;20041;-78
2021/11/23 19:45:26;;;;;;;7.93;3.80;;;;;;;;;;4972932;28;20034;-76
2021/11/23 19:47:51;;;;;;;9.00;4.15;;;;;;;;;;4986901;28;20030;-75
2021/11/23 19:50:18;;;;;;;7.20;3.13;;;;;;;;;;4991256;28;20036;-76
2021/11/23 19:52:43;;;;;;;8.43;3.50;;;;;;;;;;4986042;28;20396;-75
2021/11/23 19:55:10;;;;;;;10.57;3.35;;;;;;;;;;4973711;28;20137;-76
2021/11/23 19:57:35;;;;;;;9.65;2.90;;;;;;;;;;4956757;28;20038;-78
2021/11/23 20:00:01;;;;;;;8.95;3.13;;;;;;;;;;4971799;28;20543;-77
2021/11/23 20:02:28;;;;;;;7.43;3.15;;;;;;;;;;4972194;28;20046;-76
2021/11/23 20:04:57;;;;;;;7.85;3.13;;;;;;;;;;4973109;28;20019;-79
2021/11/23 20:07:22;;;;;;;8.38;3.03;;;;;;;;;;4973964;28;20077;-79
2021/11/23 20:09:52;;;;;;;7.45;3.03;;;;;;;;;;4959524;28;20019;-78
2021/11/23 20:12:22;;;;;;;6.55;3.28;;;;;;;;;;4976746;28;20117;-80
2021/11/23 20:14:49;;;;;;;8.18;3.10;;;;;;;;;;4975889;28;20109;-77
2021/11/23 20:17:16;;;;;;;8.38;3.30;;;;;;;;;;4975376;28;20034;-80
2021/11/23 20:19:41;;;;;;;7.97;3.22;;;;;;;;;;5007323;28;20110;-74
2021/11/23 20:22:07;;;;;;;6.15;2.85;;;;;;;;;;4975925;28;20139;-80
2021/11/23 20:24:33;;;;;;;6.82;2.72;;;;;;;;;;4959040;28;20093;-78
2021/11/23 20:26:59;;;;;;;7.75;2.97;;;;;;;;;;4987966;28;20038;-78
2021/11/23 20:29:24;;;;;;;6.97;2.65;;;;;;;;;;4986387;28;20388;-78
2021/11/23 20:31:51;;;;;;;6.20;2.95;;;;;;;;;;4974950;28;20481;-78
2021/11/23 20:34:17;;;;;;;5.32;3.00;;;;;;;;;;4976254;28;20129;-77
2021/11/23 20:36:43;;;;;;;8.10;3.13;;;;;;;;;;4974919;28;20472;-78
2021/11/23 20:39:08;;;;;;;9.18;3.40;;;;;;;;;;4975759;28;20113;-79
2021/11/23 20:41:34;;;;;;;7.30;2.85;;;;;;;;;;4974883;28;20043;-78
2021/11/23 20:44:00;;;;;;;6.05;2.97;;;;;;;;;;4974958;28;20030;-79
2021/11/23 20:46:27;;;;;;;7.47;2.95;;;;;;;;;;4976218;28;20476;-79
2021/11/23 20:48:52;;;;;;;10.80;3.63;;;;;;;;;;4974916;28;20129;-79
2021/11/23 20:51:18;;;;;;;8.95;2.80;;;;;;;;;;4975711;28;20065;-79
2021/11/23 20:53:45;;;;;;;6.40;2.50;;;;;;;;;;4975935;28;20070;-78
2021/11/23 20:56:17;;;;;;;7.25;3.10;;;;;;;;;;4975828;28;20023;-76
2021/11/23 20:58:42;;;;;;;6.57;3.13;;;;;;;;;;4974805;28;20612;-76
2021/11/23 21:01:08;;;;;;;6.57;3.60;;;;;;;;;;4974650;28;20045;-77
2021/11/23 21:03:33;;;;;;;6.90;3.50;;;;;;;;;;4974873;28;20496;-77
2021/11/23 21:06:00;;;;;;;6.20;2.88;;;;;;;;;;4974423;28;20031;-77
2021/11/23 21:08:26;;;;;;;7.82;3.38;;;;;;;;;;4974498;28;20074;-77
2021/11/23 21:10:51;;;;;;;6.00;3.00;;;;;;;;;;4974304;28;20031;-78
2021/11/23 21:13:18;;;;;;;4.97;2.90;;;;;;;;;;4978537;28;20026;-77
2021/11/23 21:15:44;;;;;;;7.80;3.72;;;;;;;;;;4993204;28;20042;-76
2021/11/23 21:18:10;;;;;;;7.72;3.33;;;;;;;;;;4992670;28;20542;-77
2021/11/23 21:20:39;;;;;;;7.68;3.33;;;;;;;;;;4978095;28;20046;-77
2021/11/23 21:23:05;;;;;;;6.30;2.85;;;;;;;;;;4977421;28;20037;-78
2021/11/23 21:25:30;;;;;;;8.23;3.20;;;;;;;;;;4973393;28;20031;-77
2021/11/23 21:27:56;;;;;;;8.55;3.20;;;;;;;;;;4992715;28;20026;-77
2021/11/23 21:30:21;;;;;;;7.53;3.03;;;;;;;;;;4975436;28;20027;-77
2021/11/23 21:32:47;;;;;;;7.47;2.65;;;;;;;;;;4981907;28;20098;-75
2021/11/23 21:35:13;;;;;;;6.80;3.25;;;;;;;;;;4990899;28;20030;-75
2021/11/23 21:37:39;;;;;;;9.88;3.45;;;;;;;;;;4994359;28;20034;-75
2021/11/23 21:40:11;;;;;;;7.97;3.35;;;;;;;;;;4994428;28;20081;-76
2021/11/23 21:45:21;;;;;;;5.55;3.00;;;;;;;;;;4994187;28;20541;-78
2021/11/23 21:47:47;;;;;;;8.55;3.25;;;;;;;;;;4992720;28;20056;-78
2021/11/23 21:50:13;;;;;;;8.55;3.13;;;;;;;;;;4992398;28;20033;-78
2021/11/23 21:52:38;;;;;;;6.93;3.33;;;;;;;;;;4988343;28;20034;-79
2021/11/23 21:55:04;;;;;;;9.32;3.40;;;;;;;;;;4991188;28;20106;-80
2021/11/23 21:57:30;;;;;;;10.20;3.28;;;;;;;;;;4974376;28;20027;-79
2021/11/23 21:59:55;;;;;;;6.65;3.42;;;;;;;;;;4974632;28;20077;-78
2021/11/23 22:02:21;;;;;;;7.70;3.42;;;;;;;;;;4973564;28;20038;-78
2021/11/23 22:04:46;;;;;;;7.47;3.35;;;;;;;;;;4973569;28;20554;-79
2021/11/23 22:07:12;;;;;;;6.65;3.00;;;;;;;;;;4973470;28;20034;-77
2021/11/23 22:09:37;;;;;;;7.35;3.03;;;;;;;;;;4957196;28;20035;-78
2021/11/23 22:12:03;;;;;;;6.82;3.40;;;;;;;;;;4956626;28;20031;-80
2021/11/23 22:14:29;;;;;;;7.43;3.25;;;;;;;;;;4974560;28;20041;-81
2021/11/23 22:16:54;;;;;;;10.38;3.63;;;;;;;;;;4973534;28;20393;-81
2021/11/23 22:19:20;;;;;;;8.48;3.63;;;;;;;;;;4974739;28;20066;-79
2021/11/23 22:21:45;;;;;;;5.80;3.33;;;;;;;;;;4974410;28;20053;-81
2021/11/23 22:24:11;;;;;;;7.28;3.50;;;;;;;;;;4974498;28;20074;-81
2021/11/23 22:26:38;;;;;;;6.40;3.45;;;;;;;;;;4974219;28;20114;-81
2021/11/23 22:29:03;;;;;;;6.80;2.92;;;;;;;;;;4974160;28;20034;-77
2021/11/23 22:31:29;;;;;;;6.25;3.20;;;;;;;;;;4974072;28;20065;-80
2021/11/23 22:33:56;;;;;;;10.93;3.50;;;;;;;;;;4973229;28;20402;-79
2021/11/23 22:36:22;;;;;;;7.25;2.95;;;;;;;;;;4974337;28;20109;-79
2021/11/23 22:38:47;;;;;;;6.20;3.50;;;;;;;;;;4973593;28;20030;-77
2021/11/23 22:41:13;;;;;;;7.13;3.53;;;;;;;;;;4956792;28;20484;-77
2021/11/23 22:43:39;;;;;;;7.55;3.40;;;;;;;;;;4974086;28;20041;-78